createdAt,value
2023-04-21T00:00:33.418Z,76.59
2023-04-21T00:01:33.605Z,76.79
2023-04-21T00:02:35.864Z,76.90
2023-04-21T00:03:34.343Z,76.69
2023-04-21T00:04:34.350Z,76.69
2023-04-21T00:05:34.575Z,76.79
2023-04-21T00:06:41.702Z,76.59
2023-04-21T00:07:34.952Z,76.49
2023-04-21T00:08:35.157Z,76.69
2023-04-21T00:09:35.331Z,76.59
2023-04-21T00:10:35.518Z,76.69
2023-04-21T00:11:35.690Z,76.69
2023-04-21T00:12:35.894Z,76.49
2023-04-21T00:13:36.109Z,76.69
2023-04-21T00:14:36.266Z,76.59
2023-04-21T00:15:36.435Z,76.49
2023-04-21T00:16:36.732Z,76.39
2023-04-21T00:17:36.883Z,76.49
2023-04-21T00:18:37.144Z,76.28
2023-04-21T00:19:37.351Z,76.69
2023-04-21T00:20:37.513Z,76.59
2023-04-21T00:21:37.677Z,76.49
2023-04-21T00:22:37.958Z,76.49
2023-04-21T00:23:38.118Z,76.59
2023-04-21T00:24:38.430Z,76.73
2023-04-21T00:25:38.604Z,76.83
2023-04-21T00:26:38.804Z,76.93
2023-04-21T00:27:38.995Z,77.03
2023-04-21T00:28:39.181Z,77.03
2023-04-21T00:29:39.370Z,77.24
2023-04-21T00:30:39.558Z,77.55
2023-04-21T00:31:39.786Z,77.64
2023-04-21T00:32:40.067Z,77.89
2023-04-21T00:33:40.216Z,77.98
2023-04-21T00:34:40.418Z,78.09
2023-04-21T00:35:40.610Z,78.19
2023-04-21T00:36:40.806Z,78.30
2023-04-21T00:37:40.997Z,78.50
2023-04-21T00:38:41.218Z,78.50
2023-04-21T00:39:41.416Z,78.80
2023-04-21T00:40:41.809Z,78.94
2023-04-21T00:41:41.895Z,78.80
2023-04-21T00:42:42.106Z,78.80
2023-04-21T00:43:42.338Z,79.04
2023-04-21T00:44:42.542Z,79.04
2023-04-21T00:45:42.727Z,79.04
2023-04-21T00:46:42.961Z,79.04
2023-04-21T00:47:43.163Z,79.35
2023-04-21T00:48:43.300Z,79.25
2023-04-21T00:49:43.488Z,79.25
2023-04-21T00:50:43.696Z,79.45
2023-04-21T00:51:43.848Z,79.55
2023-04-21T00:52:44.139Z,79.55
2023-04-21T00:53:44.317Z,79.55
2023-04-21T00:54:44.551Z,79.69
2023-04-21T00:55:44.733Z,79.69
2023-04-21T00:56:45.117Z,79.80
2023-04-21T00:57:45.305Z,79.69
2023-04-21T00:58:45.489Z,79.69
2023-04-21T00:59:45.688Z,79.69
2023-04-21T01:00:45.893Z,79.80
2023-04-21T01:01:46.123Z,79.80
2023-04-21T01:02:46.447Z,79.90
2023-04-21T01:03:46.811Z,79.80
2023-04-21T01:04:46.788Z,79.80
2023-04-21T01:05:46.956Z,79.80
2023-04-21T01:06:47.143Z,79.69
2023-04-21T01:07:47.469Z,79.83
2023-04-21T01:08:47.532Z,79.83
2023-04-21T01:09:47.726Z,79.93
2023-04-21T01:10:47.906Z,79.83
2023-04-21T01:11:48.078Z,79.63
2023-04-21T01:12:48.371Z,79.52
2023-04-21T01:13:48.554Z,79.52
2023-04-21T01:14:48.882Z,79.63
2023-04-21T01:15:49.065Z,79.73
2023-04-21T01:16:49.397Z,79.63
2023-04-21T01:17:49.618Z,79.73
2023-04-21T01:18:49.821Z,79.73
2023-04-21T01:19:50.054Z,79.73
2023-04-21T01:20:50.220Z,79.63
2023-04-21T01:21:50.409Z,79.63
2023-04-21T01:22:50.648Z,79.43
2023-04-21T01:23:50.813Z,79.22
2023-04-21T01:24:51.059Z,79.52
2023-04-21T01:25:51.262Z,79.32
2023-04-21T01:26:51.446Z,79.32
2023-04-21T01:27:51.719Z,79.32
2023-04-21T01:28:52.024Z,79.32
2023-04-21T01:29:52.231Z,79.57
2023-04-21T01:30:52.399Z,79.57
2023-04-21T01:31:52.599Z,79.46
2023-04-21T01:32:52.892Z,79.36
2023-04-21T01:33:53.082Z,79.16
2023-04-21T01:34:53.285Z,79.36
2023-04-21T01:35:53.463Z,78.95
2023-04-21T01:36:53.675Z,78.95
2023-04-21T01:37:53.846Z,78.85
2023-04-21T01:38:54.163Z,79.05
2023-04-21T01:39:54.409Z,79.25
2023-04-21T01:40:54.563Z,78.95
2023-04-21T01:41:54.752Z,78.95
2023-04-21T01:42:54.952Z,79.05
2023-04-21T01:43:55.157Z,78.64
2023-04-21T01:44:55.430Z,78.75
2023-04-21T01:45:56.025Z,78.34
2023-04-21T01:46:55.888Z,78.34
2023-04-21T01:47:56.110Z,78.34
2023-04-21T01:48:56.349Z,78.44
2023-04-21T01:49:56.533Z,78.23
2023-04-21T01:50:56.822Z,78.44
2023-04-21T01:51:57.043Z,78.34
2023-04-21T01:52:57.261Z,78.34
2023-04-21T01:53:57.429Z,78.34
2023-04-21T01:54:57.748Z,78.38
2023-04-21T01:55:57.923Z,78.78
2023-04-21T01:56:58.286Z,78.48
2023-04-21T01:57:58.424Z,78.68
2023-04-21T01:58:58.608Z,78.48
2023-04-21T01:59:58.814Z,78.48
2023-04-21T02:00:59.066Z,78.48
2023-04-21T02:01:59.226Z,78.58
2023-04-21T02:02:59.614Z,78.38
2023-04-21T02:04:00.094Z,78.48
2023-04-21T02:05:00.064Z,78.38
2023-04-21T02:06:00.267Z,78.58
2023-04-21T02:07:00.471Z,78.88
2023-04-21T02:08:00.641Z,78.78
2023-04-21T02:09:00.925Z,78.72
2023-04-21T02:10:01.141Z,78.58
2023-04-21T02:11:01.370Z,78.61
2023-04-21T02:12:01.522Z,78.82
2023-04-21T02:13:01.860Z,78.72
2023-04-21T02:14:02.037Z,78.72
2023-04-21T02:15:02.353Z,78.61
2023-04-21T02:16:12.843Z,78.72
2023-04-21T02:17:03.835Z,78.61
2023-04-21T02:18:03.027Z,78.82
2023-04-21T02:19:03.225Z,78.72
2023-04-21T02:20:04.251Z,78.72
2023-04-21T02:21:03.652Z,78.52
2023-04-21T02:22:03.823Z,78.72
2023-04-21T02:23:04.130Z,78.82
2023-04-21T02:24:04.309Z,78.82
2023-04-21T02:25:04.587Z,78.82
2023-04-21T02:26:04.793Z,78.72
2023-04-21T02:27:04.987Z,78.61
2023-04-21T02:28:05.173Z,78.61
2023-04-21T02:29:05.352Z,78.61
2023-04-21T02:30:05.582Z,78.72
2023-04-21T02:31:05.825Z,78.61
2023-04-21T02:33:06.350Z,78.41
2023-04-21T02:34:06.496Z,78.65
2023-04-21T02:35:06.801Z,78.41
2023-04-21T02:36:06.955Z,78.31
2023-04-21T02:37:07.248Z,78.11
2023-04-21T02:38:07.543Z,78.11
2023-04-21T02:39:07.735Z,78.20
2023-04-21T02:40:07.959Z,78.20
2023-04-21T02:41:08.110Z,77.90
2023-04-21T02:42:08.430Z,78.00
2023-04-21T02:43:08.656Z,78.00
2023-04-21T02:44:08.849Z,77.90
2023-04-21T02:45:09.056Z,78.00
2023-04-21T02:46:09.304Z,77.90
2023-04-21T02:47:09.504Z,77.80
2023-04-21T02:48:09.832Z,77.70
2023-04-21T02:49:09.933Z,77.80
2023-04-21T02:50:10.149Z,77.70
2023-04-21T02:51:10.328Z,77.59
2023-04-21T02:52:10.528Z,77.73
2023-04-21T02:53:10.701Z,77.83
2023-04-21T02:54:10.991Z,77.63
2023-04-21T02:55:11.198Z,77.73
2023-04-21T02:56:11.402Z,77.83
2023-04-21T02:57:11.596Z,77.73
2023-04-21T02:58:11.883Z,77.83
2023-04-21T02:59:12.045Z,77.42
2023-04-21T03:00:12.412Z,77.42
2023-04-21T03:01:12.593Z,77.53
2023-04-21T03:02:12.978Z,77.53
2023-04-21T03:03:13.220Z,77.32
2023-04-21T03:04:13.438Z,77.22
2023-04-21T03:05:13.560Z,77.12
2023-04-21T03:06:13.771Z,77.12
2023-04-21T03:07:14.929Z,77.12
2023-04-21T03:08:14.217Z,77.22
2023-04-21T03:09:14.421Z,77.12
2023-04-21T03:10:14.653Z,77.32
2023-04-21T03:11:14.831Z,77.22
2023-04-21T03:12:15.052Z,77.32
2023-04-21T03:13:15.238Z,77.42
2023-04-21T03:14:15.540Z,77.42
2023-04-21T03:15:15.727Z,77.12
2023-04-21T03:16:15.967Z,77.32
2023-04-21T03:17:16.121Z,77.22
2023-04-21T03:18:16.412Z,77.22
2023-04-21T03:19:16.754Z,76.81
2023-04-21T03:20:16.882Z,76.71
2023-04-21T03:21:17.063Z,76.81
2023-04-21T03:22:17.387Z,77.01
2023-04-21T03:23:17.572Z,76.91
2023-04-21T03:24:17.804Z,77.12
2023-04-21T03:25:18.050Z,77.12
2023-04-21T03:26:18.255Z,77.32
2023-04-21T03:27:18.459Z,77.32
2023-04-21T03:28:18.702Z,77.36
2023-04-21T03:29:19.136Z,77.26
2023-04-21T03:30:19.332Z,77.26
2023-04-21T03:31:19.457Z,77.12
2023-04-21T03:32:19.763Z,77.01
2023-04-21T03:33:19.866Z,76.91
2023-04-21T03:34:20.119Z,77.01
2023-04-21T03:35:20.376Z,77.01
2023-04-21T03:36:20.630Z,77.05
2023-04-21T03:37:20.866Z,77.15
2023-04-21T03:38:21.096Z,77.26
2023-04-21T03:39:21.396Z,77.46
2023-04-21T03:40:21.634Z,77.56
2023-04-21T03:41:21.818Z,77.56
2023-04-21T03:42:22.026Z,77.56
2023-04-21T03:43:22.243Z,77.76
2023-04-21T03:44:22.538Z,77.56
2023-04-21T03:45:22.804Z,77.46
2023-04-21T03:46:23.028Z,77.46
2023-04-21T03:47:23.186Z,77.56
2023-04-21T03:48:23.502Z,77.36
2023-04-21T03:49:23.901Z,77.46
2023-04-21T03:50:24.029Z,77.56
2023-04-21T03:51:24.214Z,77.60
2023-04-21T03:52:24.521Z,77.70
2023-04-21T03:53:24.733Z,77.67
2023-04-21T03:54:24.916Z,77.56
2023-04-21T03:55:25.151Z,77.56
2023-04-21T03:56:25.333Z,77.70
2023-04-21T03:57:25.531Z,77.70
2023-04-21T03:58:25.719Z,77.60
2023-04-21T03:59:25.923Z,77.50
2023-04-21T04:00:26.140Z,77.56
2023-04-21T04:01:26.368Z,77.70
2023-04-21T04:02:26.641Z,77.60
2023-04-21T04:03:27.060Z,77.50
2023-04-21T04:04:27.213Z,77.60
2023-04-21T04:05:27.388Z,77.60
2023-04-21T04:06:27.544Z,77.50
2023-04-21T04:07:27.761Z,77.70
2023-04-21T04:08:27.938Z,77.70
2023-04-21T04:09:28.130Z,77.80
2023-04-21T04:10:28.444Z,77.91
2023-04-21T04:11:28.634Z,78.01
2023-04-21T04:12:28.951Z,77.60
2023-04-21T04:13:29.130Z,77.50
2023-04-21T04:14:29.521Z,77.50
2023-04-21T04:15:29.677Z,77.50
2023-04-21T04:16:30.021Z,77.39
2023-04-21T04:17:30.135Z,77.80
2023-04-21T04:18:30.414Z,77.91
2023-04-21T04:19:30.658Z,77.80
2023-04-21T04:20:30.869Z,77.70
2023-04-21T04:21:31.070Z,77.91
2023-04-21T04:22:31.254Z,77.80
2023-04-21T04:23:31.532Z,77.70
2023-04-21T04:24:31.864Z,77.91
2023-04-21T04:25:32.113Z,77.60
2023-04-21T04:26:32.310Z,77.50
2023-04-21T04:27:32.513Z,77.80
2023-04-21T04:28:32.683Z,77.60
2023-04-21T04:29:32.856Z,77.70
2023-04-21T04:30:33.212Z,77.60
2023-04-21T04:31:33.448Z,77.60
2023-04-21T04:32:33.653Z,77.60
2023-04-21T04:33:33.856Z,77.70
2023-04-21T04:34:34.033Z,77.70
2023-04-21T04:35:34.258Z,77.80
2023-04-21T04:36:34.482Z,77.50
2023-04-21T04:37:34.662Z,77.91
2023-04-21T04:38:34.957Z,77.91
2023-04-21T04:39:35.137Z,77.70
2023-04-21T04:40:35.490Z,77.50
2023-04-21T04:41:35.685Z,77.60
2023-04-21T04:42:35.884Z,77.39
2023-04-21T04:43:36.064Z,77.50
2023-04-21T04:44:36.390Z,77.50
2023-04-21T04:45:36.583Z,77.50
2023-04-21T04:46:36.824Z,77.50
2023-04-21T04:47:37.010Z,77.60
2023-04-21T04:48:37.213Z,77.50
2023-04-21T04:49:37.400Z,77.50
2023-04-21T04:50:37.741Z,77.29
2023-04-21T04:51:37.899Z,77.15
2023-04-21T04:52:38.097Z,77.15
2023-04-21T04:53:38.482Z,77.15
2023-04-21T04:54:38.568Z,77.15
2023-04-21T04:55:38.846Z,77.15
2023-04-21T04:56:39.030Z,76.84
2023-04-21T04:57:39.250Z,76.75
2023-04-21T04:58:39.461Z,76.84
2023-04-21T04:59:39.647Z,76.64
2023-04-21T05:00:39.941Z,76.34
2023-04-21T05:01:47.216Z,76.54
2023-04-21T05:02:40.705Z,76.43
2023-04-21T05:03:41.868Z,76.34
2023-04-21T05:04:40.919Z,76.23
2023-04-21T05:05:41.133Z,76.30
2023-04-21T05:06:41.342Z,76.50
2023-04-21T05:07:41.522Z,76.20
2023-04-21T05:08:41.734Z,76.20
2023-04-21T05:09:41.894Z,75.99
2023-04-21T05:10:42.142Z,75.89
2023-04-21T05:11:42.308Z,75.68
2023-04-21T05:12:42.504Z,76.61
2023-04-21T05:13:42.686Z,75.55
2023-04-21T05:14:42.874Z,75.55
2023-04-21T05:15:43.083Z,75.65
2023-04-21T05:16:43.295Z,75.14
2023-04-21T05:17:43.457Z,74.73
2023-04-21T05:18:43.644Z,74.84
2023-04-21T05:19:43.808Z,74.63
2023-04-21T05:20:44.014Z,74.43
2023-04-21T05:21:44.200Z,75.00
2023-04-21T05:22:44.373Z,74.29
2023-04-21T05:23:44.558Z,74.08
2023-04-21T05:24:44.841Z,74.08
2023-04-21T05:25:45.167Z,73.88
2023-04-21T05:26:45.343Z,74.08
2023-04-21T05:27:45.635Z,73.88
2023-04-21T05:28:45.825Z,73.98
2023-04-21T05:29:46.138Z,74.18
2023-04-21T05:30:46.325Z,74.08
2023-04-21T05:31:46.532Z,73.68
2023-04-21T05:32:46.767Z,73.88
2023-04-21T05:33:46.911Z,73.57
2023-04-21T05:34:47.098Z,73.68
2023-04-21T05:35:47.313Z,73.54
2023-04-21T05:36:47.490Z,73.74
2023-04-21T05:37:47.787Z,73.23
2023-04-21T05:38:47.957Z,73.03
2023-04-21T05:39:48.260Z,73.13
2023-04-21T05:40:48.434Z,72.92
2023-04-21T05:41:48.616Z,72.92
2023-04-21T05:42:48.897Z,73.23
2023-04-21T05:43:49.105Z,72.72
2023-04-21T05:44:49.273Z,73.30
2023-04-21T05:45:49.597Z,72.34
2023-04-21T05:46:49.731Z,71.33
2023-04-21T05:47:50.113Z,71.02
2023-04-21T05:48:50.278Z,71.02
2023-04-21T05:49:50.625Z,71.19
2023-04-21T05:50:50.755Z,71.09
2023-04-21T05:51:50.930Z,70.27
2023-04-21T05:52:51.099Z,71.06
2023-04-21T05:53:51.270Z,70.04
2023-04-21T05:54:51.466Z,70.21
2023-04-21T05:55:51.742Z,69.49
2023-04-21T05:56:51.949Z,68.68
2023-04-21T05:57:52.102Z,68.78
2023-04-21T05:58:52.272Z,68.54
2023-04-21T05:59:52.441Z,68.95
2023-04-21T06:00:52.633Z,68.34
2023-04-21T06:01:52.818Z,67.83
2023-04-21T06:02:53.043Z,68.44
2023-04-21T06:03:53.323Z,67.90
2023-04-21T06:04:53.540Z,67.05
2023-04-21T06:05:53.613Z,66.35
2023-04-21T06:06:53.775Z,66.85
2023-04-21T06:07:53.931Z,66.24
2023-04-21T06:08:54.104Z,65.91
2023-04-21T06:09:54.266Z,65.91
2023-04-21T06:10:54.454Z,65.47
2023-04-21T06:11:54.616Z,64.96
2023-04-21T06:12:54.780Z,64.45
2023-04-21T06:13:55.029Z,64.73
2023-04-21T06:14:55.181Z,64.70
2023-04-21T06:15:55.589Z,63.48
2023-04-21T06:16:55.644Z,63.48
2023-04-21T06:17:55.823Z,62.91
2023-04-21T06:18:55.988Z,62.51
2023-04-21T06:19:56.177Z,62.53
2023-04-21T06:20:56.356Z,62.20
2023-04-21T06:21:56.523Z,61.97
2023-04-21T06:22:56.694Z,61.66
2023-04-21T06:23:56.863Z,61.46
2023-04-21T06:24:58.295Z,61.29
2023-04-21T06:25:57.212Z,61.49
2023-04-21T06:26:57.397Z,61.66
2023-04-21T06:27:57.560Z,61.02
2023-04-21T06:28:57.734Z,60.52
2023-04-21T06:29:57.926Z,61.13
2023-04-21T06:30:58.054Z,60.19
2023-04-21T06:31:58.311Z,59.45
2023-04-21T06:32:58.550Z,59.42
2023-04-21T06:33:58.677Z,58.38
2023-04-21T06:34:58.834Z,58.20
2023-04-21T06:35:58.994Z,58.25
2023-04-21T06:36:59.135Z,57.95
2023-04-21T06:37:59.404Z,57.65
2023-04-21T06:38:59.531Z,57.07
2023-04-21T06:39:59.684Z,57.87
2023-04-21T06:40:59.859Z,57.80
2023-04-21T06:41:59.994Z,57.78
2023-04-21T06:43:00.134Z,58.28
2023-04-21T06:44:00.386Z,57.67
2023-04-21T06:45:00.515Z,57.37
2023-04-21T06:46:00.673Z,57.67
2023-04-21T06:47:00.865Z,56.81
2023-04-21T06:48:01.045Z,55.74
2023-04-21T06:49:01.160Z,55.32
2023-04-21T06:50:01.465Z,54.79
2023-04-21T06:51:01.571Z,54.71
2023-04-21T06:52:01.695Z,54.94
2023-04-21T06:53:01.962Z,54.83
2023-04-21T06:54:02.109Z,54.51
2023-04-21T06:55:02.231Z,54.58
2023-04-21T06:56:02.371Z,53.88
2023-04-21T06:57:02.519Z,53.45
2023-04-21T06:58:02.662Z,53.25
2023-04-21T06:59:02.797Z,52.64
2023-04-21T07:00:02.933Z,53.45
2023-04-21T07:01:03.127Z,52.64
2023-04-21T07:02:03.302Z,53.38
2023-04-21T07:03:03.497Z,53.05
2023-04-21T07:04:03.686Z,52.92
2023-04-21T07:05:03.664Z,52.67
2023-04-21T07:06:03.839Z,51.51
2023-04-21T07:07:03.976Z,50.48
2023-04-21T07:08:04.105Z,50.63
2023-04-21T07:09:04.242Z,50.93
2023-04-21T07:10:04.364Z,51.56
2023-04-21T07:11:04.597Z,51.54
2023-04-21T07:12:04.711Z,50.60
2023-04-21T07:13:04.824Z,50.81
2023-04-21T07:14:04.913Z,49.77
2023-04-21T07:15:05.049Z,50.00
2023-04-21T07:16:05.153Z,50.81
2023-04-21T07:17:05.349Z,50.18
2023-04-21T07:18:05.547Z,50.18
2023-04-21T07:19:05.627Z,49.76
2023-04-21T07:20:05.812Z,49.15
2023-04-21T07:21:05.931Z,49.55
2023-04-21T07:22:06.060Z,49.37
2023-04-21T07:23:06.193Z,50.20
2023-04-21T07:24:06.291Z,49.90
2023-04-21T07:25:06.451Z,50.73
2023-04-21T07:26:06.534Z,50.96
2023-04-21T07:27:06.663Z,50.40
2023-04-21T07:28:06.760Z,49.70
2023-04-21T07:29:06.850Z,50.38
2023-04-21T07:30:06.998Z,49.77
2023-04-21T07:31:07.159Z,49.90
2023-04-21T07:32:07.229Z,49.77
2023-04-21T07:33:07.386Z,48.83
2023-04-21T07:34:07.466Z,48.52
2023-04-21T07:35:07.789Z,48.70
2023-04-21T07:36:07.753Z,48.00
2023-04-21T07:37:07.860Z,48.43
2023-04-21T07:38:07.945Z,48.52
2023-04-21T07:39:08.168Z,48.63
2023-04-21T07:40:08.247Z,47.88
2023-04-21T07:41:08.420Z,47.63
2023-04-21T07:42:08.543Z,46.68
2023-04-21T07:43:08.612Z,45.96
2023-04-21T07:44:08.691Z,46.18
2023-04-21T07:45:08.911Z,46.28
2023-04-21T07:46:09.030Z,45.86
2023-04-21T07:47:09.144Z,45.24
2023-04-21T07:48:09.233Z,44.93
2023-04-21T07:49:09.403Z,45.78
2023-04-21T07:50:09.501Z,46.28
2023-04-21T07:51:09.605Z,46.11
2023-04-21T07:52:09.669Z,45.98
2023-04-21T07:53:09.820Z,46.66
2023-04-21T07:54:09.911Z,45.14
2023-04-21T07:55:10.015Z,45.18
2023-04-21T07:56:10.093Z,45.48
2023-04-21T07:57:10.190Z,45.78
2023-04-21T07:58:10.300Z,45.58
2023-04-21T07:59:10.544Z,45.86
2023-04-21T08:00:10.550Z,45.21
2023-04-21T08:01:10.643Z,43.87
2023-04-21T08:02:10.760Z,43.91
2023-04-21T08:03:11.004Z,44.86
2023-04-21T08:04:11.216Z,45.24
2023-04-21T08:05:11.331Z,44.74
2023-04-21T08:06:11.469Z,44.51
2023-04-21T08:07:11.533Z,45.08
2023-04-21T08:08:11.604Z,45.18
2023-04-21T08:09:11.695Z,46.50
2023-04-21T08:10:11.786Z,46.23
2023-04-21T08:11:12.170Z,45.80
2023-04-21T08:12:11.931Z,46.50
2023-04-21T08:13:12.420Z,46.08
2023-04-21T08:14:12.187Z,45.08
2023-04-21T08:15:12.295Z,45.76
2023-04-21T08:16:12.444Z,44.86
2023-04-21T08:17:12.485Z,45.14
2023-04-21T08:18:12.622Z,44.76
2023-04-21T08:19:12.670Z,44.78
2023-04-21T08:20:12.760Z,45.58
2023-04-21T08:21:12.829Z,45.06
2023-04-21T08:22:12.923Z,43.93
2023-04-21T08:23:13.347Z,44.70
2023-04-21T08:24:13.147Z,43.79
2023-04-21T08:25:13.228Z,44.93
2023-04-21T08:26:13.268Z,44.93
2023-04-21T08:27:13.356Z,44.84
2023-04-21T08:28:13.444Z,44.84
2023-04-21T08:29:13.536Z,44.43
2023-04-21T08:30:13.582Z,44.39
2023-04-21T08:31:13.660Z,43.18
2023-04-21T08:32:13.789Z,42.85
2023-04-21T08:33:14.174Z,42.03
2023-04-21T08:34:13.901Z,43.23
2023-04-21T08:35:14.004Z,42.05
2023-04-21T08:36:26.168Z,42.83
2023-04-21T08:37:15.191Z,43.21
2023-04-21T08:38:14.253Z,42.61
2023-04-21T08:39:14.301Z,42.32
2023-04-21T08:40:14.349Z,43.01
2023-04-21T08:41:14.403Z,42.40
2023-04-21T08:42:14.451Z,42.71
2023-04-21T08:43:14.528Z,41.91
2023-04-21T08:44:14.566Z,42.33
2023-04-21T08:45:14.631Z,42.55
2023-04-21T08:46:14.729Z,42.41
2023-04-21T08:47:14.745Z,41.60
2023-04-21T08:48:14.815Z,41.60
2023-04-21T08:49:14.838Z,42.69
2023-04-21T08:50:14.858Z,41.41
2023-04-21T08:51:14.948Z,42.55
2023-04-21T08:52:14.998Z,42.25
2023-04-21T08:53:15.037Z,43.07
2023-04-21T08:54:15.086Z,43.29
2023-04-21T08:55:15.129Z,43.29
2023-04-21T08:56:15.148Z,44.21
2023-04-21T08:57:16.272Z,43.62
2023-04-21T08:58:15.235Z,44.32
2023-04-21T08:59:15.271Z,43.48
2023-04-21T09:00:15.326Z,42.33
2023-04-21T09:01:15.426Z,42.11
2023-04-21T09:02:15.562Z,41.52
2023-04-21T09:03:25.033Z,41.31
2023-04-21T09:04:16.949Z,41.85
2023-04-21T09:05:16.117Z,42.60
2023-04-21T09:06:16.433Z,42.79
2023-04-21T09:07:15.766Z,42.69
2023-04-21T09:08:15.830Z,43.19
2023-04-21T09:09:15.863Z,42.47
2023-04-21T09:10:15.921Z,42.95
2023-04-21T09:11:15.971Z,43.35
2023-04-21T09:12:15.981Z,42.11
2023-04-21T09:13:16.039Z,41.88
2023-04-21T09:14:16.061Z,40.56
2023-04-21T09:15:16.087Z,41.44
2023-04-21T09:16:16.127Z,40.24
2023-04-21T09:17:16.202Z,40.04
2023-04-21T09:18:16.223Z,40.28
2023-04-21T09:19:16.292Z,41.19
2023-04-21T09:20:16.285Z,41.61
2023-04-21T09:21:16.353Z,41.80
2023-04-21T09:22:16.353Z,40.68
2023-04-21T09:23:16.394Z,40.72
2023-04-21T09:24:16.449Z,41.00
2023-04-21T09:25:16.457Z,40.86
2023-04-21T09:26:16.479Z,41.44
2023-04-21T09:27:16.496Z,40.32
2023-04-21T09:28:16.518Z,39.23
2023-04-21T09:29:16.614Z,40.26
2023-04-21T09:30:16.570Z,40.86
2023-04-21T09:31:16.777Z,40.14
2023-04-21T09:32:16.548Z,40.34
2023-04-21T09:33:27.282Z,39.54
2023-04-21T09:34:17.567Z,39.34
2023-04-21T09:35:16.573Z,39.72
2023-04-21T09:36:16.562Z,40.04
2023-04-21T09:37:18.782Z,39.92
2023-04-21T09:38:16.600Z,40.04
2023-04-21T09:40:16.617Z,40.36
2023-04-21T09:41:16.613Z,39.83
2023-04-21T09:42:16.622Z,39.80
2023-04-21T09:43:16.627Z,39.07
2023-04-21T09:44:16.660Z,38.87
2023-04-21T09:45:32.831Z,38.28
2023-04-21T09:46:17.635Z,38.81
2023-04-21T09:47:16.631Z,39.32
2023-04-21T09:48:16.613Z,40.00
2023-04-21T09:49:16.656Z,39.70
2023-04-21T09:50:20.615Z,38.89
2023-04-21T09:52:18.970Z,38.41
2023-04-21T09:53:16.906Z,38.51
2023-04-21T09:55:16.824Z,39.80
2023-04-21T09:56:16.830Z,38.49
2023-04-21T09:57:16.825Z,38.13
2023-04-21T09:58:16.802Z,38.17
2023-04-21T09:59:16.794Z,38.76
2023-04-21T10:00:16.810Z,39.16
2023-04-21T10:01:16.849Z,39.48
2023-04-21T10:02:16.963Z,39.64
2023-04-21T10:03:16.945Z,39.72
2023-04-21T10:04:17.123Z,38.25
2023-04-21T10:05:16.908Z,38.95
2023-04-21T10:06:16.888Z,39.34
2023-04-21T10:07:16.871Z,39.23
2023-04-21T10:08:16.847Z,38.23
2023-04-21T10:09:16.862Z,38.21
2023-04-21T10:10:16.890Z,37.83
2023-04-21T10:11:16.848Z,38.82
2023-04-21T10:12:16.853Z,37.92
2023-04-21T10:13:16.828Z,39.09
2023-04-21T10:14:16.817Z,38.67
2023-04-21T10:15:16.795Z,38.79
2023-04-21T10:16:16.816Z,38.39
2023-04-21T10:17:18.025Z,38.01
2023-04-21T10:18:16.838Z,38.79
2023-04-21T10:19:16.960Z,37.90
2023-04-21T10:20:16.838Z,37.63
2023-04-21T10:21:16.852Z,38.84
2023-04-21T10:22:16.818Z,38.43
2023-04-21T10:23:16.817Z,38.21
2023-04-21T10:24:16.999Z,38.43
2023-04-21T10:25:16.882Z,38.73
2023-04-21T10:26:16.867Z,38.21
2023-04-21T10:27:16.863Z,37.13
2023-04-21T10:28:16.877Z,37.95
2023-04-21T10:29:16.867Z,38.07
2023-04-21T10:30:17.020Z,38.46
2023-04-21T10:31:17.000Z,38.25
2023-04-21T10:32:17.016Z,37.53
2023-04-21T10:33:16.956Z,37.07
2023-04-21T10:34:16.966Z,38.46
2023-04-21T10:35:16.976Z,37.97
2023-04-21T10:36:16.964Z,38.40
2023-04-21T10:37:17.142Z,38.59
2023-04-21T10:38:17.039Z,37.97
2023-04-21T10:39:17.133Z,38.25
2023-04-21T10:40:17.046Z,37.83
2023-04-21T10:41:17.095Z,38.33
2023-04-21T10:42:17.125Z,37.60
2023-04-21T10:43:17.104Z,37.08
2023-04-21T10:44:17.186Z,37.18
2023-04-21T10:45:17.181Z,37.20
2023-04-21T10:46:17.215Z,37.92
2023-04-21T10:47:17.303Z,36.12
2023-04-21T10:48:17.155Z,37.32
2023-04-21T10:49:17.171Z,37.32
2023-04-21T10:50:17.177Z,36.83
2023-04-21T10:51:17.188Z,37.23
2023-04-21T10:52:17.175Z,37.92
2023-04-21T10:53:17.195Z,36.96
2023-04-21T10:54:17.390Z,36.33
2023-04-21T10:55:17.217Z,35.80
2023-04-21T10:56:17.172Z,35.01
2023-04-21T10:57:17.173Z,34.59
2023-04-21T10:58:17.154Z,34.52
2023-04-21T10:59:17.156Z,34.71
2023-04-21T11:00:17.179Z,35.03
2023-04-21T11:01:17.221Z,34.74
2023-04-21T11:02:24.296Z,35.26
2023-04-21T11:03:17.381Z,35.38
2023-04-21T11:04:17.372Z,36.27
2023-04-21T11:05:17.221Z,35.69
2023-04-21T11:06:17.232Z,36.08
2023-04-21T11:07:17.233Z,35.89
2023-04-21T11:08:17.222Z,35.16
2023-04-21T11:09:17.231Z,34.92
2023-04-21T11:10:17.220Z,34.80
2023-04-21T11:11:17.214Z,34.94
2023-04-21T11:12:17.205Z,35.66
2023-04-21T11:13:17.184Z,36.65
2023-04-21T11:14:17.335Z,35.92
2023-04-21T11:15:17.292Z,35.03
2023-04-21T11:16:17.222Z,36.04
2023-04-21T11:17:17.202Z,35.44
2023-04-21T11:18:17.193Z,34.94
2023-04-21T11:19:17.191Z,34.83
2023-04-21T11:20:17.202Z,35.03
2023-04-21T11:21:17.196Z,34.63
2023-04-21T11:22:17.186Z,34.92
2023-04-21T11:23:17.193Z,34.45
2023-04-21T11:24:17.387Z,35.75
2023-04-21T11:25:17.232Z,35.47
2023-04-21T11:26:17.232Z,36.05
2023-04-21T11:27:17.216Z,35.64
2023-04-21T11:28:17.190Z,35.24
2023-04-21T11:29:17.189Z,35.54
2023-04-21T11:30:17.184Z,35.46
2023-04-21T11:31:17.217Z,35.34
2023-04-21T11:32:17.190Z,34.61
2023-04-21T11:33:17.187Z,34.78
2023-04-21T11:34:17.248Z,34.17
2023-04-21T11:35:17.214Z,34.50
2023-04-21T11:36:17.230Z,34.59
2023-04-21T11:37:17.227Z,34.99
2023-04-21T11:38:17.240Z,34.22
2023-04-21T11:39:17.748Z,34.92
2023-04-21T11:40:17.281Z,35.24
2023-04-21T11:41:17.404Z,35.06
2023-04-21T11:42:17.401Z,34.86
2023-04-21T11:43:17.630Z,34.74
2023-04-21T11:44:17.437Z,34.71
2023-04-21T11:45:19.178Z,34.00
2023-04-21T11:46:17.543Z,33.21
2023-04-21T11:47:17.576Z,33.72
2023-04-21T11:48:17.556Z,34.15
2023-04-21T11:49:17.544Z,34.94
2023-04-21T11:50:17.539Z,35.42
2023-04-21T11:51:19.267Z,34.81
2023-04-21T11:52:17.584Z,34.01
2023-04-21T11:53:17.600Z,35.22
2023-04-21T11:54:17.619Z,34.50
2023-04-21T11:55:17.624Z,34.30
2023-04-21T11:56:17.666Z,33.80
2023-04-21T11:57:17.669Z,34.31
2023-04-21T11:58:17.675Z,34.10
2023-04-21T11:59:17.710Z,33.80
2023-04-21T12:00:17.703Z,34.22
2023-04-21T12:01:17.743Z,34.12
2023-04-21T12:02:17.851Z,34.22
2023-04-21T12:03:17.856Z,33.90
2023-04-21T12:04:17.948Z,34.01
2023-04-21T12:05:17.869Z,34.13
2023-04-21T12:06:17.951Z,34.10
2023-04-21T12:07:17.889Z,33.33
2023-04-21T12:08:17.925Z,34.10
2023-04-21T12:09:17.976Z,33.40
2023-04-21T12:10:18.026Z,34.06
2023-04-21T12:11:17.998Z,32.96
2023-04-21T12:12:18.015Z,32.70
2023-04-21T12:13:18.270Z,34.01
2023-04-21T12:14:18.073Z,34.50
2023-04-21T12:15:18.233Z,33.28
2023-04-21T12:16:18.183Z,34.08
2023-04-21T12:17:18.181Z,33.49
2023-04-21T12:18:18.199Z,33.98
2023-04-21T12:19:18.233Z,34.56
2023-04-21T12:20:18.239Z,34.03
2023-04-21T12:21:18.259Z,32.81
2023-04-21T12:22:18.325Z,32.15
2023-04-21T12:23:18.353Z,31.69
2023-04-21T12:24:18.380Z,32.23
2023-04-21T12:25:18.429Z,32.73
2023-04-21T12:26:18.414Z,33.12
2023-04-21T12:27:18.428Z,33.14
2023-04-21T12:28:18.443Z,33.24
2023-04-21T12:29:18.481Z,34.33
2023-04-21T12:30:18.499Z,33.11
2023-04-21T12:31:18.586Z,32.98
2023-04-21T12:32:18.633Z,32.67
2023-04-21T12:33:18.688Z,32.56
2023-04-21T12:34:18.721Z,32.75
2023-04-21T12:35:18.742Z,32.25
2023-04-21T12:36:18.754Z,32.93
2023-04-21T12:37:19.765Z,31.65
2023-04-21T12:38:18.760Z,32.46
2023-04-21T12:39:18.825Z,33.49
2023-04-21T12:40:18.820Z,33.39
2023-04-21T12:41:18.850Z,33.39
2023-04-21T12:42:18.856Z,33.37
2023-04-21T12:43:18.912Z,32.56
2023-04-21T12:44:18.920Z,33.19
2023-04-21T12:45:18.930Z,34.20
2023-04-21T12:46:18.982Z,34.00
2023-04-21T12:47:18.947Z,33.97
2023-04-21T12:48:19.007Z,33.14
2023-04-21T12:49:18.981Z,32.95
2023-04-21T12:50:19.006Z,32.07
2023-04-21T12:51:19.024Z,31.87
2023-04-21T12:52:19.044Z,31.87
2023-04-21T12:53:19.040Z,31.84
2023-04-21T12:54:19.070Z,31.65
2023-04-21T12:55:19.086Z,31.77
2023-04-21T12:56:19.108Z,32.39
2023-04-21T12:57:19.132Z,33.22
2023-04-21T12:58:19.157Z,34.05